This is the latest recevied weather packets stored in our database for station/object EA3FHP. If no packets are shown the sender has not sent any weather packets the latest 10 day(s).
| Time | Temp. | Humidity | Pressure | Rain* | Wind** | Luminosity | Snow |
|---|---|---|---|---|---|---|---|
| 1777561203 | 23.33° C | 60% | 1018.1 hPa | 0 mm | - | - | - |
| 1777560603 | 23.33° C | 61% | 1017.8 hPa | 0 mm | - | - | - |
| 1777560003 | 22.22° C | 61% | 1017.8 hPa | 0 mm | - | - | - |
| 1777559403 | 21.67° C | 61% | 1018.1 hPa | 0 mm | - | - | - |
| 1777558803 | 22.22° C | 61% | 1018.1 hPa | 0 mm | - | - | - |
| 1777558203 | 22.22° C | 60% | 1018 hPa | 0 mm | - | - | - |
| 1777557603 | 21.11° C | 64% | 1018 hPa | 0 mm | - | - | - |
| 1777557003 | 22.78° C | 61% | 1018 hPa | 0 mm | - | - | - |
| 1777556403 | 23.33° C | 53% | 1018 hPa | 0 mm | - | - | - |
| 1777555803 | 23.33° C | 52% | 1018.1 hPa | 0 mm | - | - | - |
| 1777495204 | 13.89° C | 73% | 1016.3 hPa | 0 mm | - | - | - |
| 1777494603 | 13.89° C | 72% | 1016.4 hPa | 0 mm | - | - | - |
| 1777494003 | 13.89° C | 74% | 1016 hPa | 0 mm | - | - | - |
| 1777493403 | 13.89° C | 75% | 1016.1 hPa | 0 mm | - | - | - |
| 1777492803 | 13.89° C | 74% | 1016.1 hPa | 0 mm | - | - | - |
| 1777492203 | 14.44° C | 74% | 1015.8 hPa | 0 mm | - | - | - |
| 1777491604 | 14.44° C | 74% | 1015.7 hPa | 0 mm | - | - | - |
| 1777491003 | 15° C | 73% | 1015.5 hPa | 0 mm | - | - | - |
| 1777490403 | 15.56° C | 73% | 1015.3 hPa | 0 mm | - | - | - |
| 1777489803 | 16.11° C | 72% | 1015.2 hPa | 0 mm | - | - | - |
| 1777489203 | 16.11° C | 70% | 1015 hPa | 0 mm | - | - | - |
| 1777488603 | 16.67° C | 69% | 1014.8 hPa | 0 mm | - | - | - |
| 1777488003 | 17.22° C | 66% | 1014.5 hPa | 0 mm | - | - | - |
| 1777487404 | 17.78° C | 63% | 1014.6 hPa | 0 mm | - | - | - |
| 1777486803 | 18.33° C | 65% | 1014.4 hPa | 0 mm | - | - | - |
* Rain latest hour (hover to see other rain measurements)
** Current wind speed in m/s (hover to see current wind gust speed)